| time (UTC) | temp F | wind direction | speed knots | gust knots | rain 1hr in | rain 24hr in | rain mn in | humidity % | barometer mb |
| 20260510212105 | 79 | 162 | 2.6 | 7.0 | 0.00 | 0.00 | 0.00 | 48 | 1003.7 |
| 20260510211605 | 78 | 174 | 1.7 | 5.2 | 0.00 | 0.00 | 0.00 | 49 | 1003.7 |
| 20260510210605 | 78 | 168 | 1.7 | 5.2 | 0.00 | 0.00 | 0.00 | 50 | 1003.9 |
| 20260510210105 | 78 | 146 | 1.7 | 5.2 | 0.00 | 0.00 | 0.00 | 50 | 1003.9 |
| 20260510205604 | 77 | 174 | 0.9 | 5.2 | 0.00 | 0.00 | 0.00 | 50 | 1003.7 |
| 20260510205105 | 76 | 170 | 2.6 | 5.2 | 0.00 | 0.00 | 0.00 | 51 | 1004.1 |
| 20260510204606 | 76 | 205 | 1.7 | 4.3 | 0.00 | 0.00 | 0.00 | 52 | 1003.9 |
| 20260510204105 | 76 | 143 | 3.5 | 6.1 | 0.00 | 0.00 | 0.00 | 53 | 1004.1 |
| 20260510203606 | 75 | 227 | 2.6 | 6.1 | 0.00 | 0.00 | 0.00 | 53 | 1004.1 |
| 20260510203105 | 74 | 182 | 2.6 | 7.0 | 0.00 | 0.00 | 0.00 | 54 | 1004.1 |
| 20260510202605 | 74 | 193 | 2.6 | 6.1 | 0.00 | 0.00 | 0.00 | 54 | 1004.1 |
| 20260510202105 | 74 | 209 | 1.7 | 5.2 | 0.00 | 0.00 | 0.00 | 54 | 1004.2 |
| 20260510201605 | 74 | 206 | 1.7 | 6.1 | 0.00 | 0.00 | 0.00 | 54 | 1004.4 |
| 20260510201105 | 74 | 132 | 1.7 | 6.1 | 0.00 | 0.00 | 0.00 | 55 | 1004.4 |
| 20260510200605 | 73 | 175 | 0.9 | 7.0 | 0.00 | 0.00 | 0.00 | 56 | 1004.4 |
| 20260510200105 | 73 | 147 | 2.6 | 7.0 | 0.00 | 0.00 | 0.00 | 56 | 1004.4 |
| 20260510195605 | 72 | 171 | 2.6 | 7.0 | 0.00 | 0.00 | 0.00 | 57 | 1004.5 |
| 20260510194604 | 72 | 159 | 3.5 | 7.8 | 0.00 | 0.00 | 0.00 | 58 | 1004.7 |
| 20260510193605 | 71 | 154 | 2.6 | 6.1 | 0.00 | 0.00 | 0.00 | 59 | 1004.7 |
| 20260510193105 | 70 | 140 | 2.6 | 7.8 | 0.00 | 0.00 | 0.00 | 59 | 1004.7 |
| 20260510192604 | 70 | 158 | 2.6 | 10.4 | 0.00 | 0.00 | 0.00 | 59 | 1004.7 |
| 20260510191606 | 70 | 161 | 2.6 | 10.4 | 0.00 | 0.00 | 0.00 | 59 | 1004.7 |
| 20260510191104 | 70 | 170 | 1.7 | 7.8 | 0.00 | 0.00 | 0.00 | 60 | 1004.9 |
| 20260510190604 | 70 | 149 | 4.3 | 10.4 | 0.00 | 0.00 | 0.00 | 60 | 1005.1 |
| 20260510190105 | 70 | 139 | 2.6 | 6.1 | 0.00 | 0.00 | 0.00 | 61 | 1005.1 |
| 20260510185604 | 69 | 121 | 1.7 | 6.1 | 0.00 | 0.00 | 0.00 | 62 | 1005.1 |
| 20260510184605 | 68 | 164 | 1.7 | 5.2 | 0.00 | 0.00 | 0.00 | 63 | 1005.1 |
| 20260510184104 | 68 | 145 | 4.3 | 7.8 | 0.00 | 0.00 | 0.00 | 63 | 1005.2 |
| 20260510183604 | 68 | 173 | 3.5 | 11.3 | 0.00 | 0.00 | 0.00 | 63 | 1005.1 |
| 20260510183105 | 68 | 154 | 2.6 | 7.0 | 0.00 | 0.00 | 0.00 | 64 | 1005.4 |
| 20260510182105 | 67 | 202 | 2.6 | 6.1 | 0.00 | 0.00 | 0.00 | 65 | 1005.4 |
| 20260510181106 | 66 | 144 | 4.3 | 8.7 | 0.00 | 0.00 | 0.00 | 66 | 1005.4 |
| 20260510180105 | 65 | 152 | 2.6 | 7.8 | 0.00 | 0.00 | 0.00 | 67 | 1005.4 |
| 20260510175605 | 65 | 141 | 3.5 | 10.4 | 0.00 | 0.00 | 0.00 | 68 | 1005.4 |
| 20260510175104 | 65 | 141 | 4.3 | 10.4 | 0.00 | 0.00 | 0.00 | 68 | 1005.4 |
| 20260510174606 | 64 | 142 | 2.6 | 7.0 | 0.00 | 0.00 | 0.00 | 69 | 1005.4 |
| 20260510174105 | 64 | 139 | 4.3 | 8.7 | 0.00 | 0.00 | 0.00 | 68 | 1005.4 |
| 20260510173605 | 64 | 161 | 4.3 | 10.4 | 0.00 | 0.00 | 0.00 | 68 | 1005.4 |
| 20260510173105 | 64 | 131 | 4.3 | 11.3 | 0.00 | 0.00 | 0.00 | 68 | 1005.2 |
| 20260510172605 | 64 | 154 | 4.3 | 10.4 | 0.00 | 0.00 | 0.00 | 68 | 1005.3 |
| 20260510172105 | 64 | 145 | 2.6 | 8.7 | 0.00 | 0.00 | 0.00 | 69 | 1005.4 |
| 20260510171105 | 64 | 135 | 2.6 | 8.7 | 0.00 | 0.00 | 0.00 | 70 | 1005.4 |
| 20260510170106 | 63 | 131 | 0.9 | 6.1 | 0.00 | 0.00 | 0.00 | 72 | 1005.5 |
| 20260510165604 | 63 | 128 | 2.6 | 10.4 | 0.00 | 0.00 | 0.00 | 73 | 1005.6 |
| 20260510165104 | 62 | 154 | 2.6 | 7.8 | 0.00 | 0.00 | 0.00 | 73 | 1005.4 |
| 20260510164605 | 62 | 130 | 2.6 | 10.4 | 0.00 | 0.00 | 0.00 | 74 | 1005.4 |
| 20260510164104 | 62 | 147 | 2.6 | 8.7 | 0.00 | 0.00 | 0.00 | 74 | 1005.4 |
| 20260510163605 | 62 | 146 | 2.6 | 7.0 | 0.00 | 0.00 | 0.00 | 75 | 1005.4 |
| 20260510163104 | 61 | 143 | 3.5 | 8.7 | 0.00 | 0.00 | 0.00 | 75 | 1005.4 |
| 20260510162605 | 61 | 149 | 2.6 | 5.2 | 0.00 | 0.00 | 0.00 | 76 | 1005.4 |
| 20260510162104 | 61 | 163 | 2.6 | 6.1 | 0.00 | 0.00 | 0.00 | 76 | 1005.4 |
| 20260510161604 | 61 | 188 | 2.6 | 8.7 | 0.00 | 0.00 | 0.00 | 77 | 1005.4 |
| 20260510160606 | 60 | 138 | 2.6 | 6.1 | 0.00 | 0.00 | 0.00 | 78 | 1005.4 |
| 20260510160106 | 60 | 136 | 3.5 | 7.8 | 0.00 | 0.00 | 0.00 | 79 | 1005.4 |
| 20260510155605 | 60 | 144 | 2.6 | 7.0 | 0.00 | 0.00 | 0.00 | 79 | 1005.4 |
| 20260510155105 | 59 | 156 | 2.6 | 8.7 | 0.00 | 0.00 | 0.00 | 80 | 1005.4 |
| 20260510154605 | 59 | 141 | 2.6 | 6.1 | 0.00 | 0.00 | 0.00 | 81 | 1005.2 |
| 20260510154105 | 59 | 132 | 2.6 | 6.1 | 0.00 | 0.00 | 0.00 | 81 | 1005.4 |
| 20260510153104 | 58 | 153 | 3.5 | 7.0 | 0.00 | 0.00 | 0.00 | 82 | 1005.4 |
| 20260510152604 | 58 | 172 | 3.5 | 10.4 | 0.00 | 0.00 | 0.00 | 83 | 1005.4 |
| 20260510152105 | 58 | 135 | 1.7 | 5.2 | 0.00 | 0.00 | 0.00 | 83 | 1005.2 |
| 20260510151604 | 57 | 148 | 2.6 | 6.1 | 0.00 | 0.00 | 0.00 | 84 | 1005.2 |
| 20260510151104 | 57 | 139 | 2.6 | 7.8 | 0.00 | 0.00 | 0.00 | 85 | 1005.1 |
| 20260510150604 | 57 | 147 | 1.7 | 7.0 | 0.00 | 0.00 | 0.00 | 85 | 1005.1 |
| 20260510145604 | 56 | 199 | 3.5 | 7.8 | 0.00 | 0.00 | 0.00 | 86 | 1005.1 |
| 20260510145105 | 56 | 157 | 2.6 | 11.3 | 0.00 | 0.00 | 0.00 | 87 | 1005.1 |
| 20260510144606 | 56 | 147 | 2.6 | 10.4 | 0.00 | 0.00 | 0.00 | 87 | 1005.1 |
| 20260510144104 | 56 | 143 | 2.6 | 7.8 | 0.00 | 0.00 | 0.00 | 88 | 1005.1 |
| 20260510143604 | 55 | 155 | 1.7 | 5.2 | 0.00 | 0.00 | 0.00 | 88 | 1005.1 |
| 20260510142605 | 55 | 147 | 2.6 | 8.7 | 0.00 | 0.00 | 0.00 | 89 | 1005.1 |
| 20260510142104 | 54 | 136 | 1.7 | 7.0 | 0.00 | 0.00 | 0.00 | 90 | 1005.1 |
| 20260510141605 | 54 | 149 | 2.6 | 6.1 | 0.00 | 0.00 | 0.00 | 90 | 1005.1 |
| 20260510141104 | 54 | 159 | 2.6 | 7.0 | 0.00 | 0.00 | 0.00 | 91 | 1004.7 |
| 20260510140604 | 54 | 164 | 1.7 | 7.0 | 0.00 | 0.00 | 0.00 | 90 | 1004.7 |
| 20260510135105 | 54 | 143 | 3.5 | 7.0 | 0.00 | 0.00 | 0.00 | 91 | 1004.4 |
| 20260510134604 | 53 | 142 | 4.3 | 8.7 | 0.00 | 0.00 | 0.00 | 91 | 1004.4 |
| 20260510134104 | 53 | 141 | 2.6 | 7.0 | 0.00 | 0.00 | 0.00 | 91 | 1004.4 |
| 20260510133605 | 53 | 139 | 2.6 | 7.0 | 0.00 | 0.00 | 0.00 | 91 | 1004.1 |
| 20260510133104 | 53 | 143 | 2.6 | 7.8 | 0.00 | 0.00 | 0.00 | 91 | 1004.3 |
| 20260510132605 | 53 | 129 | 2.6 | 10.4 | 0.00 | 0.00 | 0.00 | 91 | 1004.4 |
| 20260510132104 | 53 | 143 | 4.3 | 8.7 | 0.00 | 0.00 | 0.00 | 91 | 1004.1 |
| 20260510131605 | 53 | 135 | 3.5 | 8.7 | 0.00 | 0.00 | 0.00 | 91 | 1004.4 |
| 20260510131104 | 53 | 132 | 2.6 | 10.4 | 0.00 | 0.00 | 0.00 | 91 | 1004.4 |
| 20260510130105 | 53 | 135 | 4.3 | 7.8 | 0.00 | 0.00 | 0.00 | 91 | 1004.3 |
| 20260510125604 | 53 | 143 | 2.6 | 6.1 | 0.00 | 0.00 | 0.00 | 91 | 1004.1 |
| 20260510125104 | 53 | 155 | 3.5 | 7.0 | 0.00 | 0.00 | 0.00 | 91 | 1004.3 |
| 20260510124604 | 53 | 137 | 4.3 | 10.4 | 0.00 | 0.00 | 0.00 | 91 | 1004.1 |
| 20260510124105 | 53 | 135 | 2.6 | 7.0 | 0.00 | 0.00 | 0.00 | 91 | 1004.1 |
| 20260510123604 | 53 | 130 | 2.6 | 7.8 | 0.00 | 0.00 | 0.00 | 91 | 1004.4 |
| 20260510123104 | 53 | 138 | 2.6 | 8.7 | 0.00 | 0.00 | 0.00 | 91 | 1004.4 |
| 20260510122605 | 53 | 149 | 2.6 | 7.0 | 0.00 | 0.00 | 0.00 | 91 | 1004.4 |
| 20260510122105 | 53 | 131 | 1.7 | 5.2 | 0.00 | 0.00 | 0.00 | 91 | 1004.4 |
| 20260510121105 | 53 | 148 | 2.6 | 8.7 | 0.00 | 0.00 | 0.00 | 91 | 1004.3 |
| 20260510120605 | 53 | 137 | 4.3 | 8.7 | 0.00 | 0.00 | 0.00 | 91 | 1004.4 |
| 20260510120105 | 53 | 132 | 2.6 | 7.8 | 0.00 | 0.00 | 0.00 | 91 | 1004.4 |
| 20260510115604 | 53 | 136 | 2.6 | 7.0 | 0.00 | 0.00 | 0.00 | 91 | 1004.4 |
| 20260510115104 | 53 | 144 | 4.3 | 11.3 | 0.00 | 0.00 | 0.00 | 91 | 1004.2 |
| 20260510114604 | 53 | 135 | 4.3 | 10.4 | 0.00 | 0.00 | 0.00 | 91 | 1004.1 |
| 20260510114104 | 53 | 132 | 3.5 | 11.3 | 0.00 | 0.00 | 0.00 | 91 | 1004.1 |
| 20260510113604 | 53 | 133 | 4.3 | 11.3 | 0.00 | 0.00 | 0.00 | 91 | 1004.1 |
| 20260510113104 | 53 | 139 | 2.6 | 7.8 | 0.00 | 0.00 | 0.00 | 91 | 1004.4 |
| 20260510112605 | 53 | 133 | 3.5 | 7.0 | 0.00 | 0.00 | 0.00 | 91 | 1004.1 |
| 20260510112104 | 53 | 133 | 3.5 | 7.0 | 0.00 | 0.00 | 0.00 | 91 | 1004.1 |
| 20260510111604 | 53 | 136 | 3.5 | 11.3 | 0.00 | 0.00 | 0.00 | 91 | 1004.1 |
| 20260510111104 | 53 | 140 | 4.3 | 10.4 | 0.00 | 0.00 | 0.00 | 91 | 1004.2 |
| 20260510110604 | 53 | 133 | 4.3 | 7.8 | 0.00 | 0.00 | 0.00 | 91 | 1004.1 |
| 20260510110104 | 53 | 124 | 4.3 | 8.7 | 0.00 | 0.00 | 0.00 | 91 | 1004.1 |
| 20260510105605 | 53 | 131 | 4.3 | 8.7 | 0.00 | 0.00 | 0.00 | 91 | 1004.4 |
| 20260510105104 | 53 | 132 | 3.5 | 7.8 | 0.00 | 0.00 | 0.00 | 91 | 1004.4 |
| 20260510104604 | 53 | 128 | 3.5 | 10.4 | 0.00 | 0.00 | 0.00 | 91 | 1004.1 |
| 20260510104104 | 53 | 129 | 4.3 | 11.3 | 0.00 | 0.00 | 0.00 | 91 | 1004.1 |
| 20260510103604 | 53 | 146 | 2.6 | 6.1 | 0.00 | 0.00 | 0.00 | 90 | 1004.1 |
| 20260510103104 | 53 | 130 | 4.3 | 10.4 | 0.00 | 0.00 | 0.00 | 90 | 1004.1 |
| 20260510102603 | 53 | 138 | 2.6 | 10.4 | 0.00 | 0.00 | 0.00 | 90 | 1004.1 |
| 20260510102105 | 53 | 138 | 2.6 | 8.7 | 0.00 | 0.00 | 0.00 | 90 | 1004.1 |
| 20260510101104 | 54 | 136 | 2.6 | 8.7 | 0.00 | 0.00 | 0.00 | 90 | 1004.1 |
| 20260510100604 | 54 | 150 | 2.6 | 7.0 | 0.00 | 0.00 | 0.00 | 90 | 1004.1 |
| 20260510100104 | 54 | 139 | 2.6 | 7.0 | 0.00 | 0.00 | 0.00 | 90 | 1004.1 |
| 20260510095605 | 54 | 144 | 4.3 | 7.0 | 0.00 | 0.00 | 0.00 | 89 | 1004.3 |
| 20260510095104 | 54 | 131 | 4.3 | 10.4 | 0.00 | 0.00 | 0.00 | 89 | 1004.4 |
| 20260510094603 | 54 | 134 | 4.3 | 10.4 | 0.00 | 0.00 | 0.00 | 89 | 1004.3 |
| 20260510094104 | 54 | 141 | 3.5 | 11.3 | 0.00 | 0.00 | 0.00 | 89 | 1004.1 |
| 20260510093604 | 54 | 128 | 3.5 | 7.0 | 0.00 | 0.00 | 0.00 | 89 | 1004.1 |
| 20260510092604 | 54 | 141 | 2.6 | 11.3 | 0.00 | 0.00 | 0.00 | 89 | 1004.2 |
| 20260510092103 | 54 | 133 | 2.6 | 8.7 | 0.00 | 0.00 | 0.00 | 89 | 1004.2 |
| 20260510091604 | 54 | 128 | 4.3 | 6.1 | 0.00 | 0.00 | 0.00 | 89 | 1004.1 |
| 20260510091104 | 54 | 132 | 3.5 | 7.0 | 0.00 | 0.00 | 0.00 | 89 | 1004.3 |
| 20260510090604 | 54 | 133 | 2.6 | 8.7 | 0.00 | 0.00 | 0.00 | 89 | 1004.1 |
| 20260510090103 | 54 | 122 | 3.5 | 6.1 | 0.00 | 0.00 | 0.00 | 88 | 1004.4 |
| 20260510085604 | 54 | 135 | 2.6 | 5.2 | 0.00 | 0.00 | 0.00 | 88 | 1004.4 |
| 20260510085104 | 54 | 148 | 2.6 | 7.0 | 0.00 | 0.00 | 0.00 | 88 | 1004.1 |
| 20260510084604 | 55 | 139 | 4.3 | 7.8 | 0.00 | 0.00 | 0.00 | 88 | 1004.3 |
| 20260510083604 | 55 | 158 | 2.6 | 7.8 | 0.00 | 0.00 | 0.00 | 88 | 1004.1 |
| 20260510083104 | 55 | 152 | 2.6 | 10.4 | 0.00 | 0.00 | 0.00 | 88 | 1004.1 |
| 20260510082603 | 55 | 151 | 3.5 | 7.8 | 0.00 | 0.00 | 0.00 | 88 | 1004.1 |
| 20260510082104 | 55 | 134 | 3.5 | 7.0 | 0.00 | 0.00 | 0.00 | 87 | 1004.1 |
| 20260510081104 | 55 | 142 | 3.5 | 11.3 | 0.00 | 0.00 | 0.00 | 87 | 1004.1 |
| 20260510080604 | 55 | 144 | 2.6 | 12.2 | 0.00 | 0.00 | 0.00 | 87 | 1004.3 |
| 20260510080104 | 55 | 126 | 2.6 | 5.2 | 0.00 | 0.00 | 0.00 | 87 | 1004.1 |
| 20260510075603 | 55 | 140 | 4.3 | 8.7 | 0.00 | 0.00 | 0.00 | 87 | 1004.4 |
| 20260510075104 | 55 | 133 | 4.3 | 7.8 | 0.00 | 0.00 | 0.00 | 86 | 1004.1 |
| 20260510074604 | 55 | 143 | 2.6 | 11.3 | 0.00 | 0.00 | 0.00 | 86 | 1004.1 |
| 20260510074104 | 55 | 128 | 5.2 | 8.7 | 0.00 | 0.00 | 0.00 | 86 | 1004.4 |
| 20260510073103 | 55 | 136 | 2.6 | 7.0 | 0.00 | 0.00 | 0.00 | 85 | 1004.1 |
| 20260510072604 | 55 | 130 | 2.6 | 7.0 | 0.00 | 0.00 | 0.00 | 85 | 1004.1 |
| 20260510072103 | 55 | 131 | 3.5 | 7.0 | 0.00 | 0.00 | 0.00 | 85 | 1004.1 |
| 20260510071604 | 55 | 143 | 2.6 | 5.2 | 0.00 | 0.00 | 0.00 | 85 | 1004.4 |
| 20260510071106 | 56 | 147 | 2.6 | 6.1 | 0.00 | 0.00 | 0.00 | 85 | 1004.1 |
| 20260510070603 | 56 | 133 | 4.3 | 10.4 | 0.00 | 0.00 | 0.00 | 85 | 1004.3 |
| 20260510070103 | 56 | 126 | 2.6 | 7.0 | 0.00 | 0.00 | 0.00 | 84 | 1004.1 |
| 20260510065605 | 56 | 145 | 2.6 | 12.2 | 0.00 | 0.00 | 0.00 | 84 | 1004.3 |
| 20260510065104 | 56 | 147 | 2.6 | 7.0 | 0.00 | 0.00 | 0.00 | 84 | 1004.3 |
| 20260510064603 | 56 | 150 | 2.6 | 5.2 | 0.00 | 0.00 | 0.00 | 84 | 1004.1 |
| 20260510064104 | 56 | 131 | 4.3 | 10.4 | 0.00 | 0.00 | 0.00 | 84 | 1004.1 |
| 20260510063604 | 56 | 136 | 3.5 | 8.7 | 0.00 | 0.00 | 0.00 | 83 | 1004.1 |
| 20260510063104 | 56 | 134 | 2.6 | 7.0 | 0.00 | 0.00 | 0.00 | 83 | 1004.1 |
| 20260510062603 | 56 | 121 | 2.6 | 8.7 | 0.00 | 0.00 | 0.00 | 83 | 1004.1 |
| 20260510062104 | 56 | 155 | 2.6 | 7.0 | 0.00 | 0.00 | 0.00 | 83 | 1004.1 |
| 20260510061604 | 56 | 133 | 3.5 | 7.0 | 0.00 | 0.00 | 0.00 | 83 | 1004.1 |
| 20260510061106 | 56 | 124 | 2.6 | 7.0 | 0.00 | 0.00 | 0.00 | 82 | 1004.1 |
| 20260510060605 | 56 | 126 | 1.7 | 5.2 | 0.00 | 0.00 | 0.00 | 82 | 1004.1 |
| 20260510060105 | 56 | 137 | 4.3 | 7.8 | 0.00 | 0.00 | 0.00 | 81 | 1004.1 |
| 20260510055607 | 57 | 143 | 3.5 | 7.8 | 0.00 | 0.00 | 0.00 | 81 | 1004.1 |
| 20260510055106 | 57 | 126 | 2.6 | 6.1 | 0.00 | 0.00 | 0.00 | 81 | 1004.1 |
| 20260510054605 | 57 | 140 | 3.5 | 7.0 | 0.00 | 0.00 | 0.00 | 80 | 1004.1 |
| 20260510054105 | 57 | 139 | 4.3 | 7.0 | 0.00 | 0.00 | 0.00 | 80 | 1004.1 |
| 20260510053105 | 57 | 124 | 2.6 | 6.1 | 0.00 | 0.00 | 0.00 | 79 | 1004.1 |
| 20260510052605 | 57 | 128 | 2.6 | 8.7 | 0.00 | 0.00 | 0.00 | 79 | 1004.1 |
| 20260510052106 | 57 | 139 | 2.6 | 8.7 | 0.00 | 0.00 | 0.00 | 79 | 1004.1 |
| 20260510051605 | 58 | 148 | 2.6 | 7.0 | 0.00 | 0.00 | 0.00 | 78 | 1004.1 |
| 20260510051105 | 58 | 135 | 2.6 | 8.7 | 0.00 | 0.00 | 0.00 | 78 | 1004.3 |
| 20260510050605 | 58 | 145 | 3.5 | 12.2 | 0.00 | 0.00 | 0.00 | 77 | 1004.1 |
| 20260510050106 | 58 | 119 | 2.6 | 10.4 | 0.00 | 0.00 | 0.00 | 77 | 1004.1 |
| 20260510045606 | 58 | 137 | 2.6 | 8.7 | 0.00 | 0.00 | 0.00 | 77 | 1004.1 |
| 20260510044605 | 59 | 131 | 2.6 | 7.0 | 0.00 | 0.00 | 0.00 | 76 | 1003.8 |
| 20260510044105 | 59 | 126 | 2.6 | 6.1 | 0.00 | 0.00 | 0.00 | 76 | 1004.1 |
| 20260510043605 | 59 | 136 | 4.3 | 7.8 | 0.00 | 0.00 | 0.00 | 75 | 1004.1 |
| 20260510043105 | 59 | 150 | 2.6 | 6.1 | 0.00 | 0.00 | 0.00 | 75 | 1004.1 |
| 20260510042105 | 60 | 151 | 4.3 | 8.7 | 0.00 | 0.00 | 0.00 | 74 | 1003.7 |
| 20260510041607 | 60 | 134 | 3.5 | 7.0 | 0.00 | 0.00 | 0.00 | 74 | 1003.7 |
| 20260510041105 | 60 | 137 | 2.6 | 7.0 | 0.00 | 0.00 | 0.00 | 73 | 1003.7 |
| 20260510040607 | 61 | 143 | 1.7 | 7.0 | 0.00 | 0.00 | 0.00 | 72 | 1003.4 |
| 20260510040106 | 61 | 131 | 2.6 | 8.7 | 0.00 | 0.00 | 0.00 | 72 | 1003.4 |
| 20260510035605 | 61 | 122 | 2.6 | 5.2 | 0.00 | 0.00 | 0.00 | 72 | 1003.4 |
| 20260510035105 | 61 | 132 | 2.6 | 5.2 | 0.00 | 0.00 | 0.00 | 71 | 1003.4 |
| 20260510034605 | 62 | 141 | 2.6 | 7.0 | 0.00 | 0.00 | 0.00 | 71 | 1003.4 |
| 20260510034105 | 62 | 158 | 2.6 | 6.1 | 0.00 | 0.00 | 0.00 | 70 | 1003.4 |
| 20260510033606 | 63 | 143 | 1.7 | 6.1 | 0.00 | 0.00 | 0.00 | 69 | 1003.0 |
| 20260510032605 | 64 | 128 | 2.6 | 7.8 | 0.00 | 0.00 | 0.00 | 68 | 1003.0 |
| 20260510032105 | 64 | 163 | 2.6 | 5.2 | 0.00 | 0.00 | 0.00 | 67 | 1003.0 |
| 20260510031605 | 65 | 129 | 2.6 | 5.2 | 0.00 | 0.00 | 0.00 | 66 | 1003.0 |
| 20260510031106 | 65 | 132 | 1.7 | 4.3 | 0.00 | 0.00 | 0.00 | 65 | 1003.0 |
| 20260510030606 | 66 | 129 | 2.6 | 5.2 | 0.00 | 0.00 | 0.00 | 64 | 1003.0 |
| 20260510030105 | 66 | 130 | 1.7 | 5.2 | 0.00 | 0.00 | 0.00 | 63 | 1002.7 |
| 20260510025605 | 67 | 149 | 2.6 | 7.0 | 0.00 | 0.00 | 0.00 | 63 | 1002.7 |
| 20260510025105 | 67 | 142 | 1.7 | 7.0 | 0.00 | 0.00 | 0.00 | 62 | 1002.7 |
| 20260510024606 | 68 | 136 | 2.6 | 7.8 | 0.00 | 0.00 | 0.00 | 61 | 1002.7 |
| 20260510023605 | 69 | 146 | 4.3 | 12.2 | 0.00 | 0.00 | 0.00 | 58 | 1002.4 |
| 20260510023105 | 70 | 144 | 2.6 | 8.7 | 0.00 | 0.00 | 0.00 | 57 | 1002.7 |
| 20260510022605 | 71 | 137 | 2.6 | 10.4 | 0.00 | 0.00 | 0.00 | 57 | 1002.4 |
| 20260510021605 | 73 | 183 | 1.7 | 5.2 | 0.00 | 0.00 | 0.00 | 54 | 1002.4 |
| 20260510021105 | 74 | 140 | 2.6 | 5.2 | 0.00 | 0.00 | 0.00 | 53 | 1002.4 |
| 20260510020606 | 75 | 188 | 1.7 | 7.0 | 0.00 | 0.00 | 0.00 | 53 | 1002.4 |
| 20260510020105 | 75 | 157 | 1.7 | 5.2 | 0.00 | 0.00 | 0.00 | 52 | 1002.4 |
| 20260510015606 | 76 | 166 | 1.7 | 6.1 | 0.00 | 0.00 | 0.00 | 52 | 1002.4 |
| 20260510015105 | 76 | 227 | 2.6 | 5.2 | 0.00 | 0.00 | 0.00 | 52 | 1002.4 |
| 20260510014605 | 75 | 210 | 0.9 | 4.3 | 0.00 | 0.00 | 0.00 | 52 | 1002.4 |
| 20260510014106 | 75 | 247 | 1.7 | 6.1 | 0.00 | 0.00 | 0.00 | 52 | 1002.4 |
| 20260510013606 | 75 | 225 | 2.6 | 8.7 | 0.00 | 0.00 | 0.00 | 51 | 1002.4 |
| 20260510013105 | 77 | 230 | 5.2 | 8.7 | 0.00 | 0.00 | 0.00 | 50 | 1002.4 |
| 20260510012606 | 77 | 236 | 3.5 | 6.1 | 0.00 | 0.00 | 0.00 | 49 | 1002.4 |
| 20260510012106 | 77 | 205 | 2.6 | 8.7 | 0.00 | 0.00 | 0.00 | 49 | 1002.4 |
| 20260510011606 | 78 | 235 | 3.5 | 7.0 | 0.00 | 0.00 | 0.00 | 48 | 1002.4 |
| 20260510011105 | 78 | 229 | 3.5 | 7.0 | 0.00 | 0.00 | 0.00 | 47 | 1002.4 |
| 20260510010605 | 78 | 248 | 2.6 | 5.2 | 0.00 | 0.00 | 0.00 | 47 | 1002.4 |
| 20260510010105 | 78 | 242 | 3.5 | 7.0 | 0.00 | 0.00 | 0.00 | 48 | 1002.4 |
| 20260510005105 | 79 | 243 | 4.3 | 8.7 | 0.00 | 0.00 | 0.00 | 47 | 1002.4 |
| 20260510004606 | 79 | 273 | 2.6 | 11.3 | 0.00 | 0.00 | 0.00 | 46 | 1002.4 |
| 20260510004105 | 80 | 234 | 1.7 | 7.0 | 0.00 | 0.00 | 0.00 | 45 | 1002.4 |
| 20260510003605 | 80 | 237 | 3.5 | 7.8 | 0.00 | 0.00 | 0.00 | 45 | 1002.4 |
| 20260510003105 | 80 | 231 | 2.6 | 5.2 | 0.00 | 0.00 | 0.00 | 46 | 1002.4 |
| 20260510002605 | 80 | 240 | 2.6 | 5.2 | 0.00 | 0.00 | 0.00 | 47 | 1002.4 |
| 20260510002105 | 80 | 229 | 2.6 | 6.1 | 0.00 | 0.00 | 0.00 | 47 | 1002.4 |
| 20260510001605 | 80 | 232 | 2.6 | 7.0 | 0.00 | 0.00 | 0.00 | 47 | 1002.4 |
| 20260510001106 | 80 | 248 | 3.5 | 8.7 | 0.00 | 0.00 | 0.00 | 47 | 1002.4 |
| 20260510000606 | 80 | 234 | 1.7 | 7.0 | 0.00 | 0.00 | 0.00 | 47 | 1002.7 |
| 20260509235604 | 80 | 223 | 2.6 | 5.2 | 0.00 | 0.00 | 0.00 | 47 | 1002.4 |
| 20260509235105 | 80 | 234 | 3.5 | 6.1 | 0.00 | 0.00 | 0.00 | 47 | 1002.4 |
| 20260509234604 | 79 | 231 | 3.5 | 7.0 | 0.00 | 0.00 | 0.00 | 47 | 1002.4 |
| 20260509234105 | 79 | 212 | 3.5 | 10.4 | 0.00 | 0.00 | 0.00 | 48 | 1002.7 |
| 20260509233605 | 80 | 233 | 3.5 | 10.4 | 0.00 | 0.00 | 0.00 | 48 | 1002.7 |
| 20260509233105 | 79 | 245 | 4.3 | 10.4 | 0.00 | 0.00 | 0.00 | 48 | 1002.7 |
| 20260509232605 | 79 | 255 | 2.6 | 13.0 | 0.00 | 0.00 | 0.00 | 49 | 1002.7 |
| 20260509232105 | 79 | 258 | 4.3 | 10.4 | 0.00 | 0.00 | 0.00 | 49 | 1002.7 |
| 20260509231605 | 79 | 267 | 4.3 | 8.7 | 0.00 | 0.00 | 0.00 | 49 | 1002.7 |
| 20260509231105 | 79 | 284 | 2.6 | 7.0 | 0.00 | 0.00 | 0.00 | 49 | 1002.7 |
| 20260509230605 | 79 | 244 | 5.2 | 11.3 | 0.00 | 0.00 | 0.00 | 49 | 1002.7 |
| 20260509230105 | 79 | 247 | 6.1 | 12.2 | 0.00 | 0.00 | 0.00 | 49 | 1002.8 |
| 20260509225605 | 79 | 264 | 4.3 | 8.7 | 0.00 | 0.00 | 0.00 | 50 | 1002.8 |
| 20260509225105 | 80 | 255 | 5.2 | 12.2 | 0.00 | 0.00 | 0.00 | 50 | 1003.0 |
| 20260509224605 | 80 | 262 | 4.3 | 8.7 | 0.00 | 0.00 | 0.00 | 50 | 1003.0 |
| 20260509224105 | 80 | 252 | 5.2 | 10.4 | 0.00 | 0.00 | 0.00 | 51 | 1003.0 |
| 20260509223605 | 79 | 246 | 3.5 | 8.7 | 0.00 | 0.00 | 0.00 | 51 | 1003.0 |
| 20260509223105 | 79 | 250 | 4.3 | 7.0 | 0.00 | 0.00 | 0.00 | 51 | 1003.0 |
| 20260509222605 | 80 | 269 | 4.3 | 11.3 | 0.00 | 0.00 | 0.00 | 51 | 1003.1 |
| 20260509222106 | 79 | 271 | 2.6 | 7.0 | 0.00 | 0.00 | 0.00 | 51 | 1003.4 |
| 20260509221605 | 79 | 272 | 3.5 | 7.8 | 0.00 | 0.00 | 0.00 | 51 | 1003.4 |
| 20260509221105 | 79 | 267 | 4.3 | 7.8 | 0.00 | 0.00 | 0.00 | 51 | 1003.4 |
| 20260509220605 | 79 | 245 | 5.2 | 11.3 | 0.00 | 0.00 | 0.00 | 51 | 1003.4 |
| 20260509220105 | 79 | 283 | 4.3 | 7.8 | 0.00 | 0.00 | 0.00 | 51 | 1003.4 |
| 20260509215605 | 79 | 256 | 4.3 | 12.2 | 0.00 | 0.00 | 0.00 | 51 | 1003.4 |
| 20260509215105 | 78 | 280 | 4.3 | 8.7 | 0.00 | 0.00 | 0.00 | 51 | 1003.4 |
| 20260509214105 | 78 | 269 | 4.3 | 11.3 | 0.00 | 0.00 | 0.00 | 51 | 1003.7 |
| 20260509213604 | 78 | 227 | 5.2 | 10.4 | 0.00 | 0.00 | 0.00 | 51 | 1003.7 |
| 20260509213105 | 78 | 262 | 4.3 | 8.7 | 0.00 | 0.00 | 0.00 | 51 | 1003.4 |
| 20260509212605 | 78 | 263 | 4.3 | 10.4 | 0.00 | 0.00 | 0.00 | 51 | 1003.7 |